Jakarta/Soekarno-Hatta International Airport

Airport
ICAO code: 
WIII
IATA Code: 
CGK
Summary
ICAO Region: 
APAC
Territory: 
Location: 
Tangerang, Banten
Serving: 
Jakarta
Elevation: 
32 ft
Coordinates: 
Aerial View: 
6° 7' 36.949" S, 106° 39' 15.482" E
Metar
Observation
WIII 200130Z 22007KT 9000 FEW018CB BKN020 25/24 Q1011 NOSIG RMK CB TO NE
Station
Jakarta / Soekarno-Hatta
Date/Time
2022-01-20 01:30:00
Wind direction
220°
Wind speed
07 kts
Lowest cloud amount
few clouds
Temperature
25°C
Dew point
24°C
Humidity
94%
QNH
1011 hPa
Weather condition
n/a

The principal international airport serving the Jakarta region.

Climatology

Tropical Savanna climate (Köppen climate classification Aw) - monthly mean temperature above 18°C in every month of the year and a pronounced dry season.

Runways

Designator Length Width Surface Rops
07L/25R 3600 60 CON Yes/Yes
07R/25L 3660 60 CON Yes/Yes
Airport map: 
Aerial View: 

Accidents and Serious Incidents at or in the vicinity of WIII

SKYbrary Partners:

Safety knowledge contributed by: